Flag for Italy

Past Weather in 43°59'19.6"N, 12°31'57.3"E, Italy — Yesterday and Last 2 Weeks

Currently: 36 °F. Chilly. (Weather station: Rimini Airport, Italy). See more current weather

Past Weather in 43°59'19.6"N, 12°31'57.3"E — Graph

°F

43°59'19.6"N, 12°31'57.3"E Temperature Yesterday

Maximum temperature yesterday: 50 °F (at 1:50 am)
Minimum temperature yesterday: 34 °F (at 9:50 pm)
Average temperature yesterday: 44 °F

High & Low Weather Summary for the Past Weeks

 TemperatureHumidityPressure
High64 °F (Feb 24, 12:50 pm)100% (Feb 21, 12:50 pm)30.63 "Hg (Feb 21, 12:50 pm)
Low30 °F (Mar 3, 6:20 am)41% (Mar 1, 12:20 pm)30.01 "Hg (Mar 5, 7:50 am)
Average45 °F75%30.38 "Hg
* Reported Feb 20 10:20 pm — Mar 7 10:20 pm, 43°59'19.6"N, 12°31'57.3"E. Weather by CustomWeather, © 2021

Note: Actual official high and low records may vary slightly from our data, if they occured in-between our weather recording intervals... More about our weather records

43°59'19.6"N, 12°31'57.3"E Weather History for the Previous 24 Hours

Scroll right to see more
 ConditionsComfort  
Time TempWeatherWind HumidityBarometerVisibility
10:20 pm
Sun, Mar 7
37 °FChilly.5 mph81%30.12 "HgN/A
9:50 pm37 °FChilly.2 mph81%30.12 "HgN/A
9:20 pm37 °FChilly.1 mph81%30.12 "HgN/A
8:50 pm39 °FChilly.1 mph75%30.12 "HgN/A
8:20 pm39 °FChilly.1 mph75%30.12 "HgN/A
7:50 pm43 °FClear.2 mph66%30.15 "Hg10 mi
7:20 pm43 °FClear.2 mph66%30.15 "Hg10 mi
6:50 pm45 °FClear.5 mph61%30.15 "Hg10 mi
6:20 pm45 °FClear.6 mph61%30.15 "Hg10 mi
5:50 pm46 °FSunny.7 mph57%30.15 "Hg10 mi
5:20 pm46 °FSunny.7 mph57%30.15 "Hg10 mi
4:50 pm46 °FSunny.7 mph53%30.15 "Hg10 mi
4:20 pm46 °FPassing clouds.8 mph53%30.18 "HgN/A
3:50 pm48 °FPassing clouds.7 mph50%30.18 "HgN/A
3:20 pm48 °FPassing clouds.8 mph54%30.18 "HgN/A
2:50 pm48 °FSunny.8 mph54%30.21 "Hg10 mi
2:20 pm48 °FPassing clouds.8 mph54%30.21 "HgN/A
1:20 pm46 °FSunny.8 mph53%30.24 "Hg10 mi
12:50 pm46 °FPassing clouds.7 mph53%30.27 "HgN/A
12:20 pm46 °FPassing clouds.7 mph53%30.27 "HgN/A
11:50 am46 °FPassing clouds.7 mph57%30.27 "HgN/A
11:20 am46 °FPassing clouds.7 mph57%30.30 "HgN/A
10:50 am48 °FSunny.3 mph46%30.30 "Hg10 mi
10:20 am46 °FPassing clouds.3 mph50%30.30 "HgN/A
9:50 am45 °FPassing clouds.6 mph49%30.33 "HgN/A
9:20 am43 °FPassing clouds.5 mph61%30.33 "HgN/A
8:20 am37 °FSunny.2 mph70%30.33 "Hg10 mi
7:50 am34 °FChilly.5 mph81%30.33 "HgN/A
7:20 am30 °FChilly.3 mph86%30.33 "HgN/A
6:50 am30 °FChilly.3 mph86%30.33 "HgN/A
6:20 am30 °FChilly.3 mph86%30.33 "HgN/A
5:50 am32 °FChilly.2 mph80%30.33 "HgN/A
5:20 am30 °FChilly.3 mph86%30.33 "HgN/A
4:50 am32 °FChilly.2 mph80%30.33 "HgN/A
4:20 am32 °FChilly.3 mph80%30.33 "HgN/A
3:50 am32 °FChilly.3 mph80%30.33 "HgN/A
3:20 am32 °FChilly.1 mph80%30.33 "HgN/A
2:50 am32 °FChilly.3 mph80%30.36 "HgN/A
2:20 am32 °FChilly.1 mph80%30.36 "HgN/A
1:50 am32 °FChilly.3 mph80%30.36 "HgN/A
1:20 am32 °FChilly.2 mph80%30.39 "HgN/A
12:50 am34 °FChilly.2 mph75%30.39 "HgN/A
12:20 am34 °FChilly.2 mph75%30.39 "HgN/A
11:50 pm
Sat, Mar 6
34 °FChilly.3 mph75%30.39 "HgN/A
11:20 pm34 °FChilly.3 mph75%30.39 "HgN/A
Weather by CustomWeather, © 2021

See weather overview